Time;durP1;ratioP1;P1;durP2;ratioP2;P2;SDS_P1;SDS_P2;PMS_P1;PMS_P2;Temp;Humidity;BMP_temperature;BMP_pressure;BME280_temperature;BME280_humidity;BME280_pressure;Samples;Min_cycle;Max_cycle;Signal;HPM_P1;HPM_P2
2022/06/07 00:00:31;;;;;;;17.33;6.00;;;11.90;99.90;;;;;;4963555;28;20082;-80
2022/06/07 00:02:57;;;;;;;12.40;5.32;;;11.90;99.90;;;;;;5013225;28;20120;-81
2022/06/07 00:05:24;;;;;;;18.15;6.50;;;11.90;99.90;;;;;;5014054;28;20517;-80
2022/06/07 00:07:50;;;;;;;18.35;7.00;;;11.90;99.90;;;;;;4979735;28;20502;-80
2022/06/07 00:10:16;;;;;;;18.85;6.72;;;12.00;99.90;;;;;;5013237;28;20084;-79
2022/06/07 00:12:42;;;;;;;16.98;6.18;;;11.90;99.90;;;;;;4998682;28;20479;-79
2022/06/07 00:15:09;;;;;;;18.23;7.00;;;11.90;99.90;;;;;;4995107;28;20089;-79
2022/06/07 00:17:35;;;;;;;14.65;6.15;;;12.00;99.90;;;;;;5011475;28;20046;-78
2022/06/07 00:20:01;;;;;;;13.30;5.55;;;12.00;99.90;;;;;;5013209;28;20060;-80
2022/06/07 00:26:11;;;;;;;15.98;6.05;;;12.00;99.90;;;;;;5012658;28;20446;-80
2022/06/07 00:28:37;;;;;;;12.27;5.80;;;12.10;99.90;;;;;;5011900;28;20038;-80
2022/06/07 00:31:03;;;;;;;15.80;6.22;;;12.00;99.90;;;;;;5013559;28;20505;-80
2022/06/07 00:33:29;;;;;;;11.68;5.93;;;12.10;99.90;;;;;;5012820;28;20107;-80
2022/06/07 00:35:55;;;;;;;13.95;5.60;;;12.10;99.90;;;;;;5013619;28;20065;-80
2022/06/07 00:38:21;;;;;;;14.32;5.82;;;12.10;99.90;;;;;;5012441;28;20054;-80
2022/06/07 00:40:47;;;;;;;13.23;5.82;;;12.10;99.90;;;;;;5012101;28;20049;-79
2022/06/07 00:43:13;;;;;;;14.98;6.00;;;12.20;99.90;;;;;;4995042;28;20046;-78
2022/06/07 00:45:39;;;;;;;13.15;5.22;;;12.20;99.90;;;;;;4994535;28;20050;-79
2022/06/07 00:48:06;;;;;;;12.18;5.78;;;12.20;99.90;;;;;;5014398;28;20056;-80
2022/06/07 00:50:44;;;;;;;12.90;4.93;;;12.20;99.90;;;;;;4996570;28;20432;-78
2022/06/07 00:53:28;;;;;;;17.58;5.82;;;12.30;99.90;;;;;;5012197;28;20180;-77
2022/06/07 00:55:55;;;;;;;15.57;5.73;;;12.20;99.90;;;;;;5012196;28;20053;-79
2022/06/07 00:58:23;;;;;;;12.45;5.43;;;12.30;99.90;;;;;;4994337;28;20058;-78
2022/06/07 01:00:49;;;;;;;13.95;5.85;;;12.20;99.90;;;;;;4994671;28;20065;-80
2022/06/07 01:03:15;;;;;;;16.92;6.00;;;12.30;99.90;;;;;;5013040;28;20394;-80
2022/06/07 01:05:42;;;;;;;15.68;6.03;;;12.30;99.90;;;;;;5011729;28;20057;-80
2022/06/07 01:10:54;;;;;;;18.35;6.05;;;12.30;99.90;;;;;;4980425;28;20080;-79
2022/06/07 01:13:26;;;;;;;21.23;7.03;;;12.30;99.90;;;;;;4993880;28;20514;-79
2022/06/07 01:15:57;;;;;;;14.15;6.28;;;12.30;99.90;;;;;;5011570;28;20065;-81
2022/06/07 01:18:23;;;;;;;12.43;5.43;;;12.30;99.90;;;;;;5012924;28;20054;-80
2022/06/07 01:21:17;;;;;;;13.98;6.32;;;12.30;99.90;;;;;;4994110;28;20080;-80
2022/06/07 01:23:44;;;;;;;14.65;6.25;;;12.20;99.90;;;;;;5011700;28;20050;-80
2022/06/07 01:26:11;;;;;;;13.50;5.68;;;12.20;99.90;;;;;;5013038;28;20259;-79
2022/06/07 01:28:36;;;;;;;14.77;6.03;;;12.20;99.90;;;;;;5011577;28;20050;-80
2022/06/07 01:31:03;;;;;;;13.75;5.25;;;12.20;99.90;;;;;;5012021;28;20053;-79
2022/06/07 01:33:29;;;;;;;18.25;6.70;;;12.10;99.90;;;;;;4993770;28;20136;-80
2022/06/07 01:36:05;;;;;;;13.65;5.50;;;12.10;99.90;;;;;;5012396;28;20125;-80
2022/06/07 01:38:33;;;;;;;16.58;5.97;;;12.00;99.90;;;;;;4977421;28;20547;-81
2022/06/07 01:43:43;;;;;;;17.63;4.93;;;11.90;99.90;;;;;;5011406;28;20050;-79
2022/06/07 01:46:09;;;;;;;13.60;5.03;;;11.90;99.90;;;;;;4993549;28;20292;-79
2022/06/07 01:48:34;;;;;;;14.23;5.60;;;11.80;99.90;;;;;;5010125;28;20065;-78
2022/06/07 01:51:05;;;;;;;17.67;5.13;;;11.70;99.90;;;;;;5011987;28;20061;-80
2022/06/07 01:53:31;;;;;;;13.90;6.28;;;11.60;99.90;;;;;;5011411;28;20050;-80
2022/06/07 01:56:02;;;;;;;14.93;6.20;;;11.60;99.90;;;;;;5011266;28;20050;-81
2022/06/07 01:58:28;;;;;;;19.85;7.47;;;11.60;99.90;;;;;;5013066;28;20050;-80
2022/06/07 02:00:54;;;;;;;17.40;6.70;;;11.60;99.90;;;;;;4993637;28;20176;-80
2022/06/07 02:03:20;;;;;;;23.30;8.77;;;11.60;99.90;;;;;;4994878;28;20065;-79
2022/06/07 02:06:01;;;;;;;18.90;7.72;;;11.60;99.90;;;;;;4994020;28;20042;-79
2022/06/07 02:08:27;;;;;;;28.08;7.65;;;11.60;99.90;;;;;;5011314;28;20050;-81
2022/06/07 02:10:54;;;;;;;20.67;7.30;;;11.60;99.90;;;;;;5011218;28;20193;-79
2022/06/07 02:13:20;;;;;;;18.58;6.13;;;11.60;99.90;;;;;;5012826;28;20580;-79
2022/06/07 02:15:47;;;;;;;13.68;6.05;;;11.50;99.90;;;;;;4994640;28;20132;-78
2022/06/07 02:18:15;;;;;;;20.90;6.55;;;11.50;99.90;;;;;;5011783;28;20060;-78
2022/06/07 02:20:41;;;;;;;18.08;7.47;;;11.50;99.90;;;;;;4993331;28;20062;-78
2022/06/07 02:23:08;;;;;;;21.63;7.60;;;11.50;99.90;;;;;;4977254;28;20057;-78
2022/06/07 02:25:43;;;;;;;15.05;7.28;;;11.40;99.90;;;;;;4993458;28;20433;-78
2022/06/07 02:28:13;;;;;;;22.33;7.68;;;11.50;99.90;;;;;;4993093;28;20506;-78
2022/06/07 02:30:42;;;;;;;14.85;7.55;;;11.50;99.90;;;;;;5012729;28;20476;-79
2022/06/07 02:33:09;;;;;;;18.75;8.30;;;11.50;99.90;;;;;;4993093;28;20061;-79
2022/06/07 02:35:38;;;;;;;17.55;7.10;;;11.60;99.90;;;;;;5009814;28;20492;-79
2022/06/07 02:38:05;;;;;;;24.02;7.15;;;11.60;99.90;;;;;;5010829;28;20050;-79
2022/06/07 02:40:30;;;;;;;21.33;6.57;;;11.60;99.90;;;;;;5010792;28;20068;-78
2022/06/07 02:42:57;;;;;;;18.33;7.18;;;11.60;99.90;;;;;;5010414;28;20058;-81
2022/06/07 02:45:23;;;;;;;22.52;6.25;;;11.60;99.90;;;;;;5014197;28;20061;-80
2022/06/07 02:47:49;;;;;;;15.32;5.63;;;11.60;99.90;;;;;;5013149;28;20082;-79
2022/06/07 02:50:15;;;;;;;22.65;6.80;;;11.60;99.90;;;;;;4992620;28;20045;-78
2022/06/07 02:52:41;;;;;;;16.33;5.55;;;11.60;99.90;;;;;;4996193;28;20053;-79
2022/06/07 02:55:07;;;;;;;18.02;7.25;;;11.60;99.90;;;;;;5014506;28;20474;-81
2022/06/07 02:57:33;;;;;;;14.50;5.28;;;11.50;99.90;;;;;;4996495;28;20057;-78
2022/06/07 02:59:59;;;;;;;20.35;7.82;;;11.40;99.90;;;;;;5014749;28;20050;-80
2022/06/07 03:02:25;;;;;;;14.88;6.70;;;11.30;99.90;;;;;;4985410;28;20525;-80
2022/06/07 03:04:51;;;;;;;19.13;6.70;;;11.30;99.90;;;;;;5013053;28;20058;-79
2022/06/07 03:07:16;;;;;;;23.65;7.43;;;11.30;99.90;;;;;;4996493;28;20502;-79
2022/06/07 03:09:42;;;;;;;25.55;7.53;;;11.20;99.90;;;;;;4996273;28;20131;-79
2022/06/07 03:12:08;;;;;;;24.80;7.90;;;11.20;99.90;;;;;;4996222;28;20108;-79
2022/06/07 03:14:34;;;;;;;32.35;7.78;;;11.20;99.90;;;;;;4996430;28;20061;-80
2022/06/07 03:17:00;;;;;;;18.95;7.78;;;11.20;99.90;;;;;;5014054;28;20149;-78
2022/06/07 03:19:28;;;;;;;21.02;7.60;;;11.10;99.90;;;;;;5015844;28;20053;-79
2022/06/07 03:21:55;;;;;;;22.13;7.30;;;11.10;99.90;;;;;;4996179;28;20498;-80
2022/06/07 03:24:21;;;;;;;19.27;6.90;;;11.10;99.90;;;;;;4996265;28;20058;-80
2022/06/07 03:26:46;;;;;;;19.33;6.50;;;11.10;99.90;;;;;;5014025;28;20073;-81
2022/06/07 03:29:12;;;;;;;26.08;8.05;;;11.10;99.90;;;;;;4996376;28;20064;-80
2022/06/07 03:31:38;;;;;;;26.90;8.05;;;11.10;99.90;;;;;;5013332;28;20197;-80
2022/06/07 03:34:07;;;;;;;26.38;9.48;;;11.10;99.90;;;;;;4995787;28;20113;-80
2022/06/07 03:36:33;;;;;;;22.23;7.40;;;11.10;99.90;;;;;;4996208;28;20501;-80
2022/06/07 03:39:01;;;;;;;25.45;8.95;;;11.10;99.90;;;;;;5014309;28;20053;-80
2022/06/07 03:41:29;;;;;;;20.10;7.57;;;11.10;99.90;;;;;;4996870;28;20060;-81
2022/06/07 03:43:56;;;;;;;27.17;7.43;;;11.10;99.90;;;;;;5013385;28;20164;-78
2022/06/07 03:46:29;;;;;;;16.85;7.15;;;11.00;99.90;;;;;;4979981;28;20049;-79
2022/06/07 03:48:55;;;;;;;21.90;6.90;;;11.00;99.90;;;;;;4995845;28;20045;-79
2022/06/07 03:51:26;;;;;;;18.88;6.10;;;11.00;99.90;;;;;;4995538;28;20057;-80
2022/06/07 03:53:52;;;;;;;19.77;7.50;;;11.00;99.90;;;;;;4995792;28;20073;-80
2022/06/07 03:56:19;;;;;;;17.08;6.07;;;11.00;99.90;;;;;;5013097;28;20058;-79
2022/06/07 03:58:45;;;;;;;19.60;7.05;;;11.00;99.90;;;;;;4997892;28;20050;-79
2022/06/07 04:01:15;;;;;;;21.17;6.20;;;11.00;99.90;;;;;;4996472;28;20054;-80
2022/06/07 04:03:42;;;;;;;25.98;7.78;;;11.00;99.90;;;;;;5014191;28;20112;-80
2022/06/07 04:06:16;;;;;;;22.42;7.13;;;11.00;99.90;;;;;;5013111;28;20056;-82
2022/06/07 04:08:42;;;;;;;19.35;7.15;;;11.00;99.90;;;;;;5011805;28;20485;-81
2022/06/07 04:11:11;;;;;;;18.95;6.53;;;11.00;99.90;;;;;;5012761;28;20050;-79
2022/06/07 04:13:37;;;;;;;21.90;6.65;;;11.00;99.90;;;;;;4995402;28;20053;-80
2022/06/07 04:16:07;;;;;;;25.67;6.50;;;11.10;99.90;;;;;;4998543;28;20113;-81
2022/06/07 04:18:33;;;;;;;21.95;7.65;;;11.10;99.90;;;;;;4994884;28;20054;-78
2022/06/07 04:20:59;;;;;;;21.13;7.38;;;11.10;99.90;;;;;;4994983;28;20115;-80
2022/06/07 04:23:25;;;;;;;22.65;7.90;;;11.10;99.90;;;;;;4995142;28;20442;-80
2022/06/07 04:25:51;;;;;;;20.05;7.03;;;11.10;99.90;;;;;;4978764;28;20057;-79
2022/06/07 04:28:18;;;;;;;20.17;7.97;;;11.10;99.90;;;;;;5012294;28;20085;-80
2022/06/07 04:30:48;;;;;;;20.65;7.78;;;11.10;99.90;;;;;;5013743;28;20057;-80
2022/06/07 04:33:15;;;;;;;17.05;6.30;;;11.10;99.90;;;;;;4979884;28;20042;-77
2022/06/07 04:35:42;;;;;;;20.75;7.53;;;11.20;99.90;;;;;;4994663;28;20096;-79
2022/06/07 04:38:08;;;;;;;16.42;6.38;;;11.20;99.90;;;;;;5012402;28;20108;-79
2022/06/07 04:40:35;;;;;;;14.45;4.68;;;11.20;99.90;;;;;;4994271;28;20061;-78
2022/06/07 04:43:01;;;;;;;17.42;4.47;;;11.30;99.90;;;;;;4994845;28;20045;-81
2022/06/07 04:45:27;;;;;;;13.65;4.18;;;11.30;99.90;;;;;;5012112;28;20061;-80
2022/06/07 04:47:53;;;;;;;11.45;3.70;;;11.30;99.90;;;;;;4996041;28;20049;-78
2022/06/07 04:50:19;;;;;;;11.88;3.33;;;11.40;99.90;;;;;;5013195;28;20100;-78
2022/06/07 04:52:46;;;;;;;11.82;3.63;;;11.40;99.90;;;;;;4994586;28;20057;-80
2022/06/07 04:55:13;;;;;;;13.38;2.97;;;11.40;99.90;;;;;;4978363;28;20057;-77
2022/06/07 04:57:39;;;;;;;13.05;3.25;;;11.40;99.90;;;;;;5012365;28;20128;-80
2022/06/07 05:00:08;;;;;;;16.25;3.30;;;11.40;99.90;;;;;;4994381;28;20117;-79
2022/06/07 05:02:35;;;;;;;15.52;4.20;;;11.40;99.90;;;;;;4978824;28;20056;-78
2022/06/07 05:05:03;;;;;;;11.98;3.10;;;11.40;99.90;;;;;;4994145;28;20473;-79
2022/06/07 05:07:29;;;;;;;10.82;3.42;;;11.40;99.90;;;;;;5011131;28;20089;-77
2022/06/07 05:09:55;;;;;;;11.90;2.67;;;11.40;99.90;;;;;;5013861;28;20065;-79
2022/06/07 05:12:21;;;;;;;12.05;2.55;;;11.40;99.90;;;;;;4994276;28;20414;-79
2022/06/07 05:14:47;;;;;;;11.80;2.38;;;11.40;99.90;;;;;;4993431;28;20112;-78
2022/06/07 05:17:13;;;;;;;19.77;4.38;;;11.50;99.90;;;;;;4994282;28;20062;-78
2022/06/07 05:19:39;;;;;;;13.18;3.00;;;11.50;99.90;;;;;;4994251;28;20064;-79
2022/06/07 05:22:05;;;;;;;10.32;2.67;;;11.50;99.90;;;;;;4977787;28;20046;-79
2022/06/07 05:24:31;;;;;;;12.65;3.28;;;11.50;99.90;;;;;;4993883;28;20093;-79
2022/06/07 05:27:00;;;;;;;15.15;2.92;;;11.50;99.90;;;;;;4996683;28;20496;-79
2022/06/07 05:29:33;;;;;;;10.70;2.72;;;11.50;99.90;;;;;;4977945;28;20050;-79
2022/06/07 05:31:59;;;;;;;11.33;2.57;;;11.60;99.90;;;;;;5012258;28;20050;-79
2022/06/07 05:34:26;;;;;;;15.45;2.67;;;11.60;99.90;;;;;;4995263;28;20641;-79
2022/06/07 05:36:51;;;;;;;18.85;3.15;;;11.60;99.90;;;;;;4994289;28;20054;-79
2022/06/07 05:39:23;;;;;;;12.85;2.58;;;11.60;99.90;;;;;;5012384;28;20058;-79
2022/06/07 05:41:49;;;;;;;16.65;3.83;;;11.60;99.90;;;;;;5012642;28;20389;-80
2022/06/07 05:44:15;;;;;;;20.52;3.10;;;11.60;99.90;;;;;;5011545;28;20054;-80
2022/06/07 05:46:42;;;;;;;21.17;3.33;;;11.70;99.90;;;;;;5012643;28;20061;-81
2022/06/07 05:49:12;;;;;;;10.68;2.42;;;11.70;99.90;;;;;;4994418;28;20046;-81
2022/06/07 05:51:39;;;;;;;13.13;2.85;;;11.80;99.90;;;;;;5011991;28;20046;-80
2022/06/07 05:54:06;;;;;;;16.88;5.15;;;11.80;99.90;;;;;;4993618;28;20050;-78
2022/06/07 05:56:32;;;;;;;12.38;2.63;;;11.80;99.90;;;;;;4993406;28;20058;-78
2022/06/07 05:58:58;;;;;;;13.82;2.95;;;11.90;99.90;;;;;;5011758;28;20080;-78
2022/06/07 06:01:26;;;;;;;14.93;3.08;;;11.90;99.90;;;;;;5012069;28;20098;-77
2022/06/07 06:03:53;;;;;;;17.50;3.25;;;11.90;99.90;;;;;;5011194;28;20077;-78
2022/06/07 06:06:19;;;;;;;12.20;3.00;;;11.90;99.90;;;;;;4993970;28;20132;-77
2022/06/07 06:11:32;;;;;;;13.63;2.67;;;12.00;99.90;;;;;;5011552;28;20072;-78
2022/06/07 06:13:58;;;;;;;16.83;2.85;;;12.00;99.90;;;;;;5011491;28;20053;-79
2022/06/07 06:16:24;;;;;;;15.68;3.15;;;12.10;99.90;;;;;;4995380;28;20054;-79
2022/06/07 06:18:58;;;;;;;11.65;2.50;;;12.10;99.90;;;;;;4993630;28;20049;-76
2022/06/07 06:21:28;;;;;;;14.23;2.35;;;12.10;99.90;;;;;;5010145;28;20061;-77
2022/06/07 06:23:58;;;;;;;15.18;2.55;;;12.20;99.90;;;;;;4993365;28;20084;-79
2022/06/07 06:26:26;;;;;;;14.55;2.38;;;12.30;99.90;;;;;;5012183;28;20121;-79
2022/06/07 06:28:53;;;;;;;10.40;1.92;;;12.30;99.90;;;;;;4998356;28;20054;-80
2022/06/07 06:31:20;;;;;;;13.55;2.47;;;12.40;99.90;;;;;;4999953;28;20054;-79
2022/06/07 06:33:50;;;;;;;7.18;1.33;;;12.40;99.90;;;;;;4997964;28;20490;-79
2022/06/07 06:36:19;;;;;;;10.35;1.90;;;12.50;99.90;;;;;;4999068;28;20050;-81
2022/06/07 06:38:46;;;;;;;12.05;2.67;;;12.50;99.90;;;;;;5015297;28;20042;-80
2022/06/07 06:41:13;;;;;;;15.68;2.45;;;12.60;99.90;;;;;;5014415;28;20633;-80
2022/06/07 06:43:39;;;;;;;13.52;2.05;;;12.60;99.90;;;;;;5013480;28;20050;-80
2022/06/07 06:46:07;;;;;;;12.98;3.15;;;12.70;99.90;;;;;;4996858;28;20535;-79
2022/06/07 06:48:33;;;;;;;20.17;3.05;;;12.80;99.90;;;;;;5015288;28;20050;-78
2022/06/07 06:51:01;;;;;;;14.20;2.60;;;12.80;99.90;;;;;;5013747;28;20057;-79
2022/06/07 06:53:27;;;;;;;12.48;2.35;;;12.80;99.90;;;;;;4996852;28;20054;-80
2022/06/07 06:55:55;;;;;;;14.30;1.88;;;12.90;99.90;;;;;;4980437;28;20116;-80
2022/06/07 06:58:21;;;;;;;15.20;2.17;;;12.90;99.90;;;;;;5015843;28;20060;-79
2022/06/07 07:00:49;;;;;;;15.43;2.28;;;13.00;99.90;;;;;;5014210;28;20442;-80
2022/06/07 07:03:15;;;;;;;9.45;2.05;;;13.10;99.90;;;;;;5014362;28;20046;-80
2022/06/07 07:05:41;;;;;;;9.88;1.83;;;13.10;99.90;;;;;;4998337;28;20128;-79
2022/06/07 07:08:07;;;;;;;8.55;1.55;;;13.20;99.90;;;;;;4996624;28;20046;-81
2022/06/07 07:10:32;;;;;;;15.10;2.17;;;13.20;99.90;;;;;;5013973;28;20584;-79
2022/06/07 07:12:58;;;;;;;12.20;2.30;;;13.20;99.90;;;;;;4996778;28;20049;-80
2022/06/07 07:15:24;;;;;;;13.00;2.38;;;13.20;99.90;;;;;;4997032;28;20050;-81
2022/06/07 07:17:50;;;;;;;15.88;3.17;;;13.10;99.90;;;;;;5015764;28;20049;-79
2022/06/07 07:20:16;;;;;;;11.10;2.20;;;13.20;99.90;;;;;;5015635;28;20060;-80
2022/06/07 07:22:42;;;;;;;16.80;2.72;;;13.20;99.90;;;;;;4996035;28;20409;-78
2022/06/07 07:25:10;;;;;;;13.10;2.45;;;13.20;99.90;;;;;;4963901;28;20054;-81
2022/06/07 07:27:36;;;;;;;10.68;1.70;;;13.30;99.90;;;;;;4979765;28;20061;-79
2022/06/07 07:30:03;;;;;;;10.75;2.00;;;13.40;99.90;;;;;;5013567;28;20062;-79
2022/06/07 07:32:29;;;;;;;12.60;2.25;;;13.40;99.90;;;;;;4996262;28;20053;-80
2022/06/07 07:34:55;;;;;;;13.48;1.98;;;13.50;99.90;;;;;;4996308;28;20509;-79
2022/06/07 07:37:21;;;;;;;13.57;2.13;;;13.50;99.90;;;;;;5014000;28;20059;-79
2022/06/07 07:39:48;;;;;;;9.13;1.60;;;13.50;99.90;;;;;;4999035;28;20576;-79
2022/06/07 07:42:14;;;;;;;11.82;2.00;;;13.40;99.90;;;;;;4996339;28;20175;-79
2022/06/07 07:44:40;;;;;;;11.05;2.22;;;13.40;99.90;;;;;;5013248;28;20062;-80
2022/06/07 07:47:06;;;;;;;13.77;3.28;;;13.40;99.90;;;;;;5013447;28;20536;-79
2022/06/07 07:49:32;;;;;;;14.75;2.40;;;13.30;99.90;;;;;;4996374;28;20427;-80
2022/06/07 07:51:58;;;;;;;12.85;2.05;;;13.30;99.90;;;;;;4996601;28;20057;-80
2022/06/07 07:54:25;;;;;;;22.42;3.65;;;13.30;99.90;;;;;;4997656;28;20112;-80
2022/06/07 07:56:52;;;;;;;15.95;2.35;;;13.30;99.90;;;;;;5015675;28;20058;-80
2022/06/07 07:59:19;;;;;;;14.65;3.13;;;13.30;99.90;;;;;;4995883;28;20069;-81
2022/06/07 08:01:45;;;;;;;11.32;2.10;;;13.30;99.90;;;;;;5013342;28;20050;-79
2022/06/07 08:04:11;;;;;;;15.75;3.42;;;13.30;99.90;;;;;;5013179;28;20117;-79
2022/06/07 08:06:37;;;;;;;12.25;2.72;;;13.40;99.90;;;;;;4995562;28;20062;-79
2022/06/07 08:09:06;;;;;;;13.20;2.13;;;13.50;99.90;;;;;;5014528;28;20461;-80
2022/06/07 08:11:34;;;;;;;17.10;2.95;;;13.50;99.90;;;;;;4996656;28;20512;-78
2022/06/07 08:14:01;;;;;;;13.27;2.30;;;13.60;99.90;;;;;;5012753;28;20422;-79
2022/06/07 08:16:28;;;;;;;13.02;2.28;;;13.60;99.90;;;;;;5013088;28;20049;-79
2022/06/07 08:18:53;;;;;;;13.55;2.28;;;13.70;99.90;;;;;;5014230;28;20137;-80
2022/06/07 08:21:25;;;;;;;13.63;2.10;;;13.80;99.90;;;;;;4995132;28;20157;-80
2022/06/07 08:23:53;;;;;;;14.35;3.33;;;13.90;99.90;;;;;;4995392;28;20128;-80
2022/06/07 08:26:19;;;;;;;7.90;1.60;;;14.00;99.90;;;;;;4996365;28;20054;-79
2022/06/07 08:28:46;;;;;;;10.57;2.15;;;14.10;99.90;;;;;;4995051;28;20049;-79
2022/06/07 08:31:17;;;;;;;11.45;2.53;;;14.20;99.90;;;;;;4994793;28;20088;-80
2022/06/07 08:39:13;;;;;;;11.18;1.98;;;14.30;99.90;;;;;;5012868;28;20635;-81
2022/06/07 08:42:07;;;;;;;8.32;1.42;;;14.40;99.90;;;;;;5012788;28;20041;-80
2022/06/07 08:44:44;;;;;;;10.40;2.33;;;14.30;99.90;;;;;;5011935;28;20090;-81
2022/06/07 08:47:37;;;;;;;8.07;2.17;;;14.30;99.90;;;;;;4995477;28;20058;-80
2022/06/07 08:50:21;;;;;;;3.80;0.90;;;14.30;99.90;;;;;;4977457;28;20391;-79
2022/06/07 08:52:51;;;;;;;3.75;0.60;;;14.30;99.90;;;;;;5012584;28;20056;-81
2022/06/07 08:55:32;;;;;;;7.40;1.00;;;14.40;99.90;;;;;;4995647;28;20042;-81
2022/06/07 08:58:21;;;;;;;7.93;1.10;;;14.40;99.90;;;;;;4994318;28;20061;-81
2022/06/07 09:00:51;;;;;;;6.43;1.50;;;14.20;99.90;;;;;;4995122;28;20141;-80
2022/06/07 09:04:05;;;;;;;8.65;1.35;;;14.30;99.90;;;;;;4994146;28;20049;-80
2022/06/07 09:06:35;;;;;;;10.35;1.75;;;14.50;99.90;;;;;;4989484;28;20053;-79
2022/06/07 09:09:02;;;;;;;6.43;1.67;;;14.50;99.90;;;;;;4978741;28;20061;-80
2022/06/07 09:12:14;;;;;;;15.40;1.98;;;14.40;99.90;;;;;;5011985;28;20060;-78
2022/06/07 09:14:49;;;;;;;7.50;1.65;;;14.30;99.90;;;;;;5011495;28;20116;-80
2022/06/07 09:17:19;;;;;;;8.85;1.45;;;14.30;99.90;;;;;;5012088;28;20085;-78
2022/06/07 09:19:47;;;;;;;9.40;2.20;;;14.30;99.90;;;;;;4994883;28;20058;-79
2022/06/07 09:22:25;;;;;;;8.27;1.95;;;14.30;99.90;;;;;;5013600;28;20058;-81
2022/06/07 09:25:05;;;;;;;12.98;1.80;;;14.10;99.90;;;;;;4994162;28;20045;-80
2022/06/07 09:27:33;;;;;;;8.95;1.40;;;14.00;99.90;;;;;;5011253;28;20592;-78
2022/06/07 09:30:23;;;;;;;15.55;2.63;;;13.90;99.90;;;;;;4993836;28;20136;-81
2022/06/07 09:32:49;;;;;;;10.23;1.83;;;13.80;99.90;;;;;;5011475;28;20592;-80
2022/06/07 09:35:22;;;;;;;10.00;1.90;;;13.60;99.90;;;;;;4994464;28;20081;-79
2022/06/07 09:38:00;;;;;;;13.88;2.35;;;13.60;99.90;;;;;;5011417;28;20537;-80
2022/06/07 09:40:36;;;;;;;10.10;2.28;;;13.50;99.90;;;;;;4994524;28;20113;-79
2022/06/07 09:43:14;;;;;;;16.75;2.67;;;13.60;99.90;;;;;;4996485;28;20060;-80
2022/06/07 09:45:51;;;;;;;13.15;2.22;;;13.60;99.90;;;;;;4994426;28;20561;-78
2022/06/07 09:48:34;;;;;;;9.48;2.17;;;13.70;99.90;;;;;;5011054;28;20169;-80
2022/06/07 09:51:22;;;;;;;11.95;3.17;;;13.80;99.90;;;;;;5012339;28;20203;-81
2022/06/07 09:53:58;;;;;;;13.68;1.98;;;13.90;99.90;;;;;;5011523;28;20061;-81
2022/06/07 09:56:37;;;;;;;8.38;1.65;;;14.00;99.90;;;;;;5011042;28;20137;-79
2022/06/07 09:59:34;;;;;;;8.63;2.00;;;14.00;99.90;;;;;;5010934;28;20603;-81
2022/06/07 10:02:07;;;;;;;11.55;2.67;;;14.10;99.90;;;;;;5011008;28;20053;-81
2022/06/07 10:04:39;;;;;;;12.75;2.80;;;14.10;99.90;;;;;;5011218;28;20080;-80
2022/06/07 10:07:27;;;;;;;9.82;1.55;;;14.10;99.90;;;;;;5011330;28;20046;-79
2022/06/07 10:10:08;;;;;;;15.43;2.90;;;14.20;99.90;;;;;;5014279;28;20156;-81
2022/06/07 10:12:58;;;;;;;13.60;2.50;;;14.20;99.90;;;;;;5012063;28;20045;-80
2022/06/07 10:15:38;;;;;;;8.25;1.85;;;14.30;99.90;;;;;;4993629;28;20143;-81
2022/06/07 10:18:46;;;;;;;9.52;2.00;;;14.30;99.90;;;;;;4993822;28;20050;-81
2022/06/07 10:21:18;;;;;;;15.20;2.00;;;14.40;99.90;;;;;;4993260;28;20489;-81
2022/06/07 10:24:12;;;;;;;12.20;2.58;;;14.40;99.90;;;;;;5010986;28;20556;-81
2022/06/07 10:26:57;;;;;;;8.98;2.22;;;14.40;99.90;;;;;;5011122;28;20072;-81
2022/06/07 10:29:36;;;;;;;11.70;2.17;;;14.50;99.90;;;;;;5011093;28;20129;-80
2022/06/07 10:32:34;;;;;;;11.20;2.63;;;14.60;99.90;;;;;;5011343;28;20126;-80
2022/06/07 10:35:10;;;;;;;8.48;2.00;;;14.90;99.90;;;;;;5009682;28;20058;-80
2022/06/07 10:37:45;;;;;;;16.13;3.25;;;15.10;99.90;;;;;;4993197;28;20058;-78
2022/06/07 10:40:14;;;;;;;;;;;15.20;99.90;;;;;;5011142;28;20521;-77
2022/06/07 10:42:45;;;;;;;11.63;2.58;;;15.30;99.90;;;;;;5011879;28;20301;-78
2022/06/07 10:45:22;;;;;;;11.85;3.45;;;15.40;99.90;;;;;;4992684;28;20061;-79
2022/06/07 10:48:21;;;;;;;13.05;2.00;;;15.50;99.90;;;;;;5010513;28;20081;-79
2022/06/07 10:50:59;;;;;;;13.32;2.42;;;15.40;99.90;;;;;;4992913;28;20058;-79
2022/06/07 10:53:39;;;;;;;12.57;2.83;;;15.30;99.90;;;;;;5010543;28;20132;-80
2022/06/07 10:56:19;;;;;;;10.32;2.30;;;15.20;99.90;;;;;;5010617;28;20056;-79
2022/06/07 10:58:54;;;;;;;12.38;2.83;;;15.10;99.90;;;;;;5009514;28;20082;-79
2022/06/07 11:01:30;;;;;;;9.75;2.10;;;15.00;99.90;;;;;;4993814;28;20141;-80
2022/06/07 11:10:47;;;;;;;9.75;2.40;;;14.90;99.90;;;;;;4969136;28;20093;-81
2022/06/07 11:13:18;;;;;;;12.98;2.13;;;14.90;99.90;;;;;;4955553;28;20082;-81
2022/06/07 11:16:08;;;;;;;12.55;1.60;;;14.80;99.90;;;;;;4994357;28;20124;-79
2022/06/07 11:18:34;;;;;;;9.18;1.58;;;14.80;99.90;;;;;;5015256;28;20073;-80
2022/06/07 11:21:00;;;;;;;11.55;3.15;;;14.70;99.90;;;;;;4963945;28;20057;-79
2022/06/07 11:23:33;;;;;;;12.18;1.98;;;14.80;99.90;;;;;;4996368;28;20100;-78
2022/06/07 11:26:01;;;;;;;12.65;1.90;;;14.90;99.90;;;;;;4996349;28;20502;-78
2022/06/07 11:28:48;;;;;;;11.52;1.58;;;15.00;99.90;;;;;;4996339;28;20050;-81
2022/06/07 11:31:23;;;;;;;9.50;1.83;;;15.10;99.90;;;;;;4996384;28;20053;-81
2022/06/07 11:33:52;;;;;;;6.57;1.70;;;15.20;99.90;;;;;;5014292;28;20042;-81
2022/06/07 11:36:23;;;;;;;8.00;1.48;;;15.20;99.90;;;;;;5015367;28;20053;-82
2022/06/07 11:38:58;;;;;;;7.75;1.42;;;15.40;99.90;;;;;;5014094;28;20502;-83
2022/06/07 11:41:38;;;;;;;10.00;1.55;;;15.70;99.90;;;;;;4996002;28;20053;-78
2022/06/07 11:44:38;;;;;;;5.80;1.55;;;15.80;99.90;;;;;;5013411;28;20050;-80
2022/06/07 11:47:07;;;;;;;9.05;2.22;;;15.60;99.90;;;;;;5013559;28;20085;-82
2022/06/07 11:49:42;;;;;;;9.70;1.95;;;15.50;99.90;;;;;;4995810;28;20172;-82
2022/06/07 11:52:14;;;;;;;10.32;2.05;;;15.50;99.90;;;;;;4995839;28;20084;-82
2022/06/07 11:54:50;;;;;;;9.65;1.60;;;15.40;99.90;;;;;;4996987;28;20077;-81
2022/06/07 11:57:52;;;;;;;6.82;1.27;;;15.40;99.90;;;;;;5013528;28;20046;-80
2022/06/07 12:00:18;;;;;;;10.30;1.50;;;15.30;99.90;;;;;;5013411;28;20057;-80
2022/06/07 12:02:56;;;;;;;9.10;1.83;;;15.30;99.90;;;;;;5013508;28;20212;-81
2022/06/07 12:05:46;;;;;;;10.85;1.73;;;15.20;99.90;;;;;;5014092;28;20054;-82
2022/06/07 12:08:40;;;;;;;6.78;1.30;;;15.10;99.90;;;;;;5013676;28;20486;-79
2022/06/07 12:11:21;;;;;;;10.70;1.98;;;15.00;99.90;;;;;;5015594;28;20074;-81
2022/06/07 12:14:29;;;;;;;9.77;1.60;;;15.10;99.90;;;;;;5013456;28;20077;-79
2022/06/07 12:17:02;;;;;;;7.10;1.33;;;15.10;99.90;;;;;;5013179;28;20115;-82
2022/06/07 12:19:31;;;;;;;5.03;1.35;;;15.20;99.90;;;;;;4995341;28;20065;-79
2022/06/07 12:22:06;;;;;;;10.00;1.77;;;15.20;99.90;;;;;;4995115;28;20050;-80
2022/06/07 12:24:56;;;;;;;6.80;1.17;;;15.20;99.90;;;;;;5012995;28;20057;-80
2022/06/07 12:27:45;;;;;;;7.13;1.05;;;15.20;99.90;;;;;;5011186;28;20054;-79
2022/06/07 12:30:30;;;;;;;5.70;1.00;;;15.30;99.90;;;;;;5012540;28;20053;-79
2022/06/07 12:33:11;;;;;;;5.32;1.52;;;15.40;99.90;;;;;;4995113;28;20054;-81
2022/06/07 12:35:52;;;;;;;6.80;1.30;;;15.50;99.90;;;;;;5012654;28;20079;-79
2022/06/07 12:38:18;;;;;;;14.75;2.17;;;15.60;99.90;;;;;;4995068;28;20159;-82
2022/06/07 12:41:01;;;;;;;10.45;2.08;;;15.70;99.90;;;;;;5012750;28;20805;-81
